sensor_id;sensor_type;location;lat;lon;timestamp;pressure;altitude;pressure_sealevel;temperature;humidity
42247;BME280;27913;42.722;23.268;2023-08-06T00:00:26;93821.41;;;18.45;100.00
42247;BME280;27913;42.722;23.268;2023-08-06T00:03:14;93741.00;;;17.91;100.00
42247;BME280;27913;42.722;23.268;2023-08-06T00:05:43;93797.13;;;17.95;100.00
42247;BME280;27913;42.722;23.268;2023-08-06T00:08:08;93940.44;;;18.87;100.00
42247;BME280;27913;42.722;23.268;2023-08-06T00:10:34;93923.41;;;18.98;100.00
42247;BME280;27913;42.722;23.268;2023-08-06T00:12:59;93738.34;;;18.02;100.00
42247;BME280;27913;42.722;23.268;2023-08-06T00:15:25;93942.84;;;19.04;100.00
42247;BME280;27913;42.722;23.268;2023-08-06T00:17:50;93959.38;;;18.90;100.00
42247;BME280;27913;42.722;23.268;2023-08-06T00:20:16;93940.75;;;19.11;100.00
42247;BME280;27913;42.722;23.268;2023-08-06T00:22:41;93926.59;;;18.95;100.00
42247;BME280;27913;42.722;23.268;2023-08-06T00:25:07;93926.31;;;18.97;100.00
42247;BME280;27913;42.722;23.268;2023-08-06T00:27:32;93949.22;;;18.87;100.00
42247;BME280;27913;42.722;23.268;2023-08-06T00:29:58;93944.41;;;18.63;100.00
42247;BME280;27913;42.722;23.268;2023-08-06T00:32:24;93874.34;;;18.26;100.00
42247;BME280;27913;42.722;23.268;2023-08-06T00:34:50;93913.81;;;18.66;100.00
42247;BME280;27913;42.722;23.268;2023-08-06T00:37:16;93850.66;;;18.30;100.00
42247;BME280;27913;42.722;23.268;2023-08-06T00:39:42;93906.84;;;18.54;100.00
42247;BME280;27913;42.722;23.268;2023-08-06T00:42:08;93787.31;;;18.06;100.00
42247;BME280;27913;42.722;23.268;2023-08-06T00:44:34;93898.88;;;19.06;100.00
42247;BME280;27913;42.722;23.268;2023-08-06T00:46:59;93908.50;;;19.28;100.00
42247;BME280;27913;42.722;23.268;2023-08-06T00:49:25;93793.72;;;18.73;100.00
42247;BME280;27913;42.722;23.268;2023-08-06T00:51:51;93910.28;;;19.54;100.00
42247;BME280;27913;42.722;23.268;2023-08-06T00:54:17;93904.47;;;19.47;100.00
42247;BME280;27913;42.722;23.268;2023-08-06T00:56:42;93894.03;;;19.45;100.00
42247;BME280;27913;42.722;23.268;2023-08-06T00:59:09;93890.31;;;19.51;100.00
42247;BME280;27913;42.722;23.268;2023-08-06T01:01:35;93899.06;;;19.67;100.00
42247;BME280;27913;42.722;23.268;2023-08-06T01:04:01;93872.09;;;19.79;100.00
42247;BME280;27913;42.722;23.268;2023-08-06T01:07:10;93832.97;;;19.54;100.00
42247;BME280;27913;42.722;23.268;2023-08-06T01:12:58;93848.88;;;19.85;100.00
42247;BME280;27913;42.722;23.268;2023-08-06T01:15:49;93769.13;;;19.23;100.00
42247;BME280;27913;42.722;23.268;2023-08-06T01:18:15;93813.53;;;19.59;100.00
42247;BME280;27913;42.722;23.268;2023-08-06T01:20:41;93786.13;;;19.37;100.00
42247;BME280;27913;42.722;23.268;2023-08-06T01:23:07;93868.56;;;19.95;100.00
42247;BME280;27913;42.722;23.268;2023-08-06T01:25:42;93811.75;;;19.23;100.00
42247;BME280;27913;42.722;23.268;2023-08-06T01:28:21;93872.22;;;19.38;100.00
42247;BME280;27913;42.722;23.268;2023-08-06T01:30:49;93824.31;;;19.12;100.00
42247;BME280;27913;42.722;23.268;2023-08-06T01:33:19;93865.75;;;19.60;100.00
42247;BME280;27913;42.722;23.268;2023-08-06T01:35:48;93844.09;;;19.72;100.00
42247;BME280;27913;42.722;23.268;2023-08-06T01:38:15;93850.22;;;19.77;100.00
42247;BME280;27913;42.722;23.268;2023-08-06T01:40:40;93681.38;;;18.70;100.00
42247;BME280;27913;42.722;23.268;2023-08-06T01:43:06;93840.38;;;19.78;100.00
42247;BME280;27913;42.722;23.268;2023-08-06T01:45:31;93843.34;;;19.71;100.00
42247;BME280;27913;42.722;23.268;2023-08-06T01:47:57;93784.03;;;19.29;100.00
42247;BME280;27913;42.722;23.268;2023-08-06T01:50:22;93819.66;;;19.49;100.00
42247;BME280;27913;42.722;23.268;2023-08-06T01:52:48;93847.38;;;19.58;100.00
42247;BME280;27913;42.722;23.268;2023-08-06T01:55:13;93856.19;;;19.53;100.00
42247;BME280;27913;42.722;23.268;2023-08-06T01:57:39;93857.25;;;19.52;100.00
42247;BME280;27913;42.722;23.268;2023-08-06T02:00:05;93837.25;;;19.60;100.00
42247;BME280;27913;42.722;23.268;2023-08-06T02:02:30;93822.28;;;19.70;100.00
42247;BME280;27913;42.722;23.268;2023-08-06T02:04:56;93792.47;;;19.57;100.00
42247;BME280;27913;42.722;23.268;2023-08-06T02:07:23;93823.59;;;19.72;100.00
42247;BME280;27913;42.722;23.268;2023-08-06T02:09:49;93724.94;;;19.11;100.00
42247;BME280;27913;42.722;23.268;2023-08-06T02:12:14;93824.63;;;19.82;100.00
42247;BME280;27913;42.722;23.268;2023-08-06T02:14:40;93821.41;;;19.79;100.00
42247;BME280;27913;42.722;23.268;2023-08-06T02:17:05;93816.38;;;19.78;100.00
42247;BME280;27913;42.722;23.268;2023-08-06T02:19:31;93803.88;;;19.63;100.00
42247;BME280;27913;42.722;23.268;2023-08-06T02:21:56;93826.75;;;19.79;100.00
42247;BME280;27913;42.722;23.268;2023-08-06T02:24:22;93641.78;;;18.43;100.00
42247;BME280;27913;42.722;23.268;2023-08-06T02:26:47;93783.72;;;19.41;100.00
42247;BME280;27913;42.722;23.268;2023-08-06T02:29:17;93856.38;;;19.78;100.00
42247;BME280;27913;42.722;23.268;2023-08-06T02:31:42;93798.88;;;19.51;100.00
42247;BME280;27913;42.722;23.268;2023-08-06T02:34:07;93765.13;;;19.30;100.00
42247;BME280;27913;42.722;23.268;2023-08-06T02:36:33;93800.97;;;19.59;100.00
42247;BME280;27913;42.722;23.268;2023-08-06T02:38:58;93781.94;;;19.05;100.00
42247;BME280;27913;42.722;23.268;2023-08-06T02:41:24;93693.66;;;18.40;100.00
42247;BME280;27913;42.722;23.268;2023-08-06T02:43:49;93883.63;;;19.54;100.00
42247;BME280;27913;42.722;23.268;2023-08-06T02:46:15;93887.38;;;19.53;100.00
42247;BME280;27913;42.722;23.268;2023-08-06T02:48:40;93873.78;;;19.54;100.00
42247;BME280;27913;42.722;23.268;2023-08-06T02:51:06;93848.72;;;19.55;100.00
42247;BME280;27913;42.722;23.268;2023-08-06T02:53:31;93847.91;;;19.55;100.00
42247;BME280;27913;42.722;23.268;2023-08-06T02:55:57;93658.00;;;18.46;100.00
42247;BME280;27913;42.722;23.268;2023-08-06T02:58:22;93770.44;;;19.30;100.00
42247;BME280;27913;42.722;23.268;2023-08-06T03:01:05;93795.19;;;19.31;100.00
42247;BME280;27913;42.722;23.268;2023-08-06T03:03:32;93766.56;;;18.65;100.00
42247;BME280;27913;42.722;23.268;2023-08-06T03:05:58;93832.31;;;18.80;100.00
42247;BME280;27913;42.722;23.268;2023-08-06T03:08:24;93826.69;;;18.92;100.00
42247;BME280;27913;42.722;23.268;2023-08-06T03:10:50;93759.66;;;18.49;100.00
42247;BME280;27913;42.722;23.268;2023-08-06T03:13:19;93759.16;;;18.46;100.00
42247;BME280;27913;42.722;23.268;2023-08-06T03:15:58;93778.03;;;18.40;100.00
42247;BME280;27913;42.722;23.268;2023-08-06T03:18:24;93813.16;;;18.57;100.00
42247;BME280;27913;42.722;23.268;2023-08-06T03:20:51;93805.94;;;18.84;100.00
42247;BME280;27913;42.722;23.268;2023-08-06T03:23:17;93772.16;;;18.69;100.00
42247;BME280;27913;42.722;23.268;2023-08-06T03:25:43;93604.56;;;17.23;100.00
42247;BME280;27913;42.722;23.268;2023-08-06T03:28:09;93821.13;;;18.26;100.00
42247;BME280;27913;42.722;23.268;2023-08-06T03:30:34;93817.94;;;18.45;100.00
42247;BME280;27913;42.722;23.268;2023-08-06T03:33:00;93760.47;;;18.28;100.00
42247;BME280;27913;42.722;23.268;2023-08-06T03:35:25;93770.31;;;18.43;100.00
42247;BME280;27913;42.722;23.268;2023-08-06T03:37:50;93836.06;;;18.74;100.00
42247;BME280;27913;42.722;23.268;2023-08-06T03:40:16;93845.09;;;18.89;100.00
42247;BME280;27913;42.722;23.268;2023-08-06T03:42:41;93847.75;;;18.99;100.00
42247;BME280;27913;42.722;23.268;2023-08-06T03:45:07;93841.88;;;19.07;100.00
42247;BME280;27913;42.722;23.268;2023-08-06T03:47:33;93849.34;;;19.16;100.00
42247;BME280;27913;42.722;23.268;2023-08-06T03:49:58;93853.03;;;19.36;100.00
42247;BME280;27913;42.722;23.268;2023-08-06T03:52:24;93809.34;;;19.26;100.00
42247;BME280;27913;42.722;23.268;2023-08-06T03:54:49;93848.47;;;19.52;100.00
42247;BME280;27913;42.722;23.268;2023-08-06T03:57:15;93848.44;;;19.62;100.00
42247;BME280;27913;42.722;23.268;2023-08-06T03:59:41;93848.91;;;19.80;100.00
42247;BME280;27913;42.722;23.268;2023-08-06T04:02:06;93847.22;;;19.89;100.00
42247;BME280;27913;42.722;23.268;2023-08-06T04:04:31;93806.28;;;19.64;100.00
42247;BME280;27913;42.722;23.268;2023-08-06T04:06:57;93636.94;;;18.61;100.00
42247;BME280;27913;42.722;23.268;2023-08-06T04:09:22;93846.41;;;19.99;100.00
42247;BME280;27913;42.722;23.268;2023-08-06T04:11:48;93859.53;;;19.90;100.00
42247;BME280;27913;42.722;23.268;2023-08-06T04:14:13;93856.03;;;19.90;100.00
42247;BME280;27913;42.722;23.268;2023-08-06T04:16:39;93864.31;;;19.88;100.00
42247;BME280;27913;42.722;23.268;2023-08-06T04:19:04;93875.59;;;19.64;100.00
42247;BME280;27913;42.722;23.268;2023-08-06T04:21:30;93865.50;;;19.56;100.00
42247;BME280;27913;42.722;23.268;2023-08-06T04:23:56;93784.06;;;19.18;100.00
42247;BME280;27913;42.722;23.268;2023-08-06T04:26:21;93863.88;;;19.71;100.00
42247;BME280;27913;42.722;23.268;2023-08-06T04:28:47;93859.84;;;19.68;100.00
42247;BME280;27913;42.722;23.268;2023-08-06T04:31:12;93850.78;;;19.74;100.00
42247;BME280;27913;42.722;23.268;2023-08-06T04:33:38;93782.59;;;19.52;100.00
42247;BME280;27913;42.722;23.268;2023-08-06T04:36:03;93848.94;;;19.64;100.00
42247;BME280;27913;42.722;23.268;2023-08-06T04:38:29;93844.16;;;19.61;100.00
42247;BME280;27913;42.722;23.268;2023-08-06T04:40:55;93819.09;;;19.62;100.00
42247;BME280;27913;42.722;23.268;2023-08-06T04:43:20;93779.19;;;19.47;100.00
42247;BME280;27913;42.722;23.268;2023-08-06T04:45:50;93820.28;;;19.91;100.00
42247;BME280;27913;42.722;23.268;2023-08-06T04:48:16;93706.53;;;19.20;100.00
42247;BME280;27913;42.722;23.268;2023-08-06T04:50:46;93760.13;;;19.69;100.00
42247;BME280;27913;42.722;23.268;2023-08-06T04:53:11;93758.81;;;19.66;100.00
42247;BME280;27913;42.722;23.268;2023-08-06T04:55:37;93782.97;;;19.86;100.00
42247;BME280;27913;42.722;23.268;2023-08-06T04:58:03;93793.09;;;19.89;100.00
42247;BME280;27913;42.722;23.268;2023-08-06T05:00:28;93732.47;;;19.54;100.00
42247;BME280;27913;42.722;23.268;2023-08-06T05:02:53;93785.81;;;20.00;100.00
42247;BME280;27913;42.722;23.268;2023-08-06T05:05:19;93781.91;;;19.87;100.00
42247;BME280;27913;42.722;23.268;2023-08-06T05:07:48;93695.63;;;19.16;100.00
42247;BME280;27913;42.722;23.268;2023-08-06T05:10:13;93782.75;;;19.77;100.00
42247;BME280;27913;42.722;23.268;2023-08-06T05:12:39;93715.84;;;19.23;100.00
42247;BME280;27913;42.722;23.268;2023-08-06T05:15:05;93789.53;;;19.53;100.00
42247;BME280;27913;42.722;23.268;2023-08-06T05:17:30;93708.75;;;18.92;100.00
42247;BME280;27913;42.722;23.268;2023-08-06T05:19:56;93789.34;;;19.39;100.00
42247;BME280;27913;42.722;23.268;2023-08-06T05:22:21;93801.53;;;19.51;100.00
42247;BME280;27913;42.722;23.268;2023-08-06T05:24:47;93791.34;;;19.68;100.00
42247;BME280;27913;42.722;23.268;2023-08-06T05:27:12;93692.41;;;19.09;100.00
42247;BME280;27913;42.722;23.268;2023-08-06T05:29:38;93791.19;;;19.95;100.00
42247;BME280;27913;42.722;23.268;2023-08-06T05:32:03;93730.00;;;19.68;100.00
42247;BME280;27913;42.722;23.268;2023-08-06T05:34:29;93798.09;;;20.06;100.00
42247;BME280;27913;42.722;23.268;2023-08-06T05:36:54;93799.97;;;20.00;100.00
42247;BME280;27913;42.722;23.268;2023-08-06T05:39:20;93788.72;;;20.09;100.00
42247;BME280;27913;42.722;23.268;2023-08-06T05:41:46;93788.41;;;20.15;100.00
42247;BME280;27913;42.722;23.268;2023-08-06T05:44:11;93782.59;;;20.13;100.00
42247;BME280;27913;42.722;23.268;2023-08-06T05:46:37;93770.53;;;20.16;100.00
42247;BME280;27913;42.722;23.268;2023-08-06T05:49:53;93692.06;;;19.77;100.00
42247;BME280;27913;42.722;23.268;2023-08-06T05:52:18;93604.69;;;19.28;100.00
42247;BME280;27913;42.722;23.268;2023-08-06T05:54:44;93717.50;;;20.09;100.00
42247;BME280;27913;42.722;23.268;2023-08-06T05:57:09;93715.91;;;20.08;100.00
42247;BME280;27913;42.722;23.268;2023-08-06T05:59:35;93730.56;;;20.11;100.00
42247;BME280;27913;42.722;23.268;2023-08-06T06:02:00;93745.88;;;20.30;100.00
42247;BME280;27913;42.722;23.268;2023-08-06T06:04:26;93648.31;;;19.83;100.00
42247;BME280;27913;42.722;23.268;2023-08-06T06:06:51;93701.59;;;20.28;98.55
42247;BME280;27913;42.722;23.268;2023-08-06T06:09:32;93696.88;;;20.20;100.00
42247;BME280;27913;42.722;23.268;2023-08-06T06:11:57;93689.25;;;20.38;98.45
42247;BME280;27913;42.722;23.268;2023-08-06T06:14:23;93830.50;;;20.69;98.45
42247;BME280;27913;42.722;23.268;2023-08-06T06:16:48;93838.53;;;20.29;100.00
42247;BME280;27913;42.722;23.268;2023-08-06T06:19:14;93786.16;;;19.88;100.00
42247;BME280;27913;42.722;23.268;2023-08-06T06:21:39;93846.00;;;20.27;100.00
42247;BME280;27913;42.722;23.268;2023-08-06T06:24:05;93632.78;;;19.00;100.00
42247;BME280;27913;42.722;23.268;2023-08-06T06:26:31;93713.53;;;19.56;100.00
42247;BME280;27913;42.722;23.268;2023-08-06T06:28:57;93729.09;;;19.38;100.00
42247;BME280;27913;42.722;23.268;2023-08-06T06:31:23;93874.75;;;20.40;98.53
42247;BME280;27913;42.722;23.268;2023-08-06T06:33:48;93727.69;;;19.57;98.01
42247;BME280;27913;42.722;23.268;2023-08-06T06:36:14;93834.00;;;20.24;97.94
42247;BME280;27913;42.722;23.268;2023-08-06T06:38:39;93860.59;;;20.40;100.00
42247;BME280;27913;42.722;23.268;2023-08-06T06:41:05;93873.16;;;20.39;99.33
42247;BME280;27913;42.722;23.268;2023-08-06T06:43:30;93832.19;;;20.14;96.83
42247;BME280;27913;42.722;23.268;2023-08-06T06:45:57;93656.91;;;19.29;94.62
42247;BME280;27913;42.722;23.268;2023-08-06T06:48:27;93892.19;;;21.08;94.39
42247;BME280;27913;42.722;23.268;2023-08-06T06:50:53;93895.53;;;20.84;93.52
42247;BME280;27913;42.722;23.268;2023-08-06T06:53:18;93848.69;;;20.62;94.20
42247;BME280;27913;42.722;23.268;2023-08-06T06:55:44;93893.59;;;20.95;92.48
42247;BME280;27913;42.722;23.268;2023-08-06T06:58:09;93901.69;;;20.84;90.65
42247;BME280;27913;42.722;23.268;2023-08-06T07:00:38;93904.72;;;20.72;91.79
42247;BME280;27913;42.722;23.268;2023-08-06T07:03:04;93897.78;;;20.71;92.31
42247;BME280;27913;42.722;23.268;2023-08-06T07:05:29;93904.59;;;20.88;91.60
42247;BME280;27913;42.722;23.268;2023-08-06T07:07:54;93910.13;;;21.02;89.83
42247;BME280;27913;42.722;23.268;2023-08-06T07:10:20;93906.50;;;20.82;90.34
42247;BME280;27913;42.722;23.268;2023-08-06T07:12:45;93888.97;;;20.71;92.11
42247;BME280;27913;42.722;23.268;2023-08-06T07:15:11;93923.25;;;20.93;91.10
42247;BME280;27913;42.722;23.268;2023-08-06T07:17:37;93919.19;;;21.06;88.98
42247;BME280;27913;42.722;23.268;2023-08-06T07:20:40;93855.25;;;20.80;87.75
42247;BME280;27913;42.722;23.268;2023-08-06T07:23:05;93713.50;;;20.01;87.50
42247;BME280;27913;42.722;23.268;2023-08-06T07:25:31;93780.50;;;20.40;88.24
42247;BME280;27913;42.722;23.268;2023-08-06T07:27:56;93909.03;;;21.38;88.07
42247;BME280;27913;42.722;23.268;2023-08-06T07:30:22;93923.00;;;21.54;88.46
42247;BME280;27913;42.722;23.268;2023-08-06T07:32:47;93917.13;;;21.57;85.75
42247;BME280;27913;42.722;23.268;2023-08-06T07:35:12;93720.16;;;20.44;86.20
42247;BME280;27913;42.722;23.268;2023-08-06T07:37:39;93914.78;;;21.75;85.69
42247;BME280;27913;42.722;23.268;2023-08-06T07:40:06;93906.47;;;21.77;85.12
42247;BME280;27913;42.722;23.268;2023-08-06T07:42:32;93888.88;;;21.70;84.00
42247;BME280;27913;42.722;23.268;2023-08-06T07:44:58;93906.28;;;21.43;85.56
42247;BME280;27913;42.722;23.268;2023-08-06T07:47:24;93912.59;;;21.53;86.91
42247;BME280;27913;42.722;23.268;2023-08-06T07:49:50;93674.75;;;20.14;84.01
42247;BME280;27913;42.722;23.268;2023-08-06T07:52:15;93911.03;;;21.52;84.40
42247;BME280;27913;42.722;23.268;2023-08-06T07:54:41;93845.47;;;21.00;85.61
42247;BME280;27913;42.722;23.268;2023-08-06T07:57:06;93915.59;;;21.46;84.52
42247;BME280;27913;42.722;23.268;2023-08-06T07:59:32;93777.13;;;20.64;85.05
42247;BME280;27913;42.722;23.268;2023-08-06T08:01:58;93901.19;;;21.47;83.96
42247;BME280;27913;42.722;23.268;2023-08-06T08:04:23;93905.16;;;21.50;83.78
42247;BME280;27913;42.722;23.268;2023-08-06T08:06:49;93908.06;;;21.53;82.05
42247;BME280;27913;42.722;23.268;2023-08-06T08:09:14;93860.66;;;21.34;82.30
42247;BME280;27913;42.722;23.268;2023-08-06T08:11:41;93635.16;;;19.92;82.24
42247;BME280;27913;42.722;23.268;2023-08-06T08:14:06;93894.69;;;21.78;80.61
42247;BME280;27913;42.722;23.268;2023-08-06T08:16:32;93893.66;;;21.73;80.60
42247;BME280;27913;42.722;23.268;2023-08-06T08:18:57;93906.16;;;21.83;80.25
42247;BME280;27913;42.722;23.268;2023-08-06T08:21:23;93910.72;;;21.83;79.99
42247;BME280;27913;42.722;23.268;2023-08-06T08:23:52;93830.72;;;21.32;80.90
42247;BME280;27913;42.722;23.268;2023-08-06T08:26:17;93891.75;;;21.79;79.36
42247;BME280;27913;42.722;23.268;2023-08-06T08:28:43;93896.81;;;21.81;79.24
42247;BME280;27913;42.722;23.268;2023-08-06T08:31:09;93854.41;;;21.44;78.91
42247;BME280;27913;42.722;23.268;2023-08-06T08:33:35;93905.44;;;21.72;79.41
42247;BME280;27913;42.722;23.268;2023-08-06T08:36:00;93900.03;;;21.78;77.30
42247;BME280;27913;42.722;23.268;2023-08-06T08:38:26;93865.16;;;21.64;77.58
42247;BME280;27913;42.722;23.268;2023-08-06T08:40:52;93894.53;;;21.93;77.48
42247;BME280;27913;42.722;23.268;2023-08-06T08:43:21;93899.47;;;22.05;77.56
42247;BME280;27913;42.722;23.268;2023-08-06T08:45:50;93889.69;;;21.71;78.36
42247;BME280;27913;42.722;23.268;2023-08-06T08:48:16;93881.94;;;21.69;78.78
42247;BME280;27913;42.722;23.268;2023-08-06T08:50:44;93764.25;;;21.01;78.10
42247;BME280;27913;42.722;23.268;2023-08-06T08:53:11;93887.81;;;21.96;78.42
42247;BME280;27913;42.722;23.268;2023-08-06T08:55:38;93866.03;;;21.83;78.28
42247;BME280;27913;42.722;23.268;2023-08-06T08:58:05;93667.28;;;20.46;78.67
42247;BME280;27913;42.722;23.268;2023-08-06T09:00:31;93818.78;;;21.49;78.05
42247;BME280;27913;42.722;23.268;2023-08-06T09:02:58;93796.72;;;21.38;78.06
42247;BME280;27913;42.722;23.268;2023-08-06T09:05:26;93870.38;;;21.99;76.77
42247;BME280;27913;42.722;23.268;2023-08-06T09:07:54;93880.03;;;22.19;78.08
42247;BME280;27913;42.722;23.268;2023-08-06T09:10:21;93879.53;;;22.36;77.63
42247;BME280;27913;42.722;23.268;2023-08-06T09:12:51;93862.16;;;22.53;75.07
42247;BME280;27913;42.722;23.268;2023-08-06T09:15:17;93835.75;;;22.46;74.40
42247;BME280;27913;42.722;23.268;2023-08-06T09:17:43;93870.91;;;22.78;73.44
42247;BME280;27913;42.722;23.268;2023-08-06T09:20:13;93883.50;;;22.77;72.53
42247;BME280;27913;42.722;23.268;2023-08-06T09:22:40;93882.06;;;22.85;73.24
42247;BME280;27913;42.722;23.268;2023-08-06T09:25:07;93791.53;;;22.49;72.44
42247;BME280;27913;42.722;23.268;2023-08-06T09:27:36;93847.16;;;22.90;70.77
42247;BME280;27913;42.722;23.268;2023-08-06T09:30:02;93861.28;;;23.10;70.66
42247;BME280;27913;42.722;23.268;2023-08-06T09:32:44;93711.63;;;22.23;70.53
42247;BME280;27913;42.722;23.268;2023-08-06T09:35:15;93859.41;;;23.25;67.92
42247;BME280;27913;42.722;23.268;2023-08-06T09:37:43;93851.06;;;23.26;68.43
42247;BME280;27913;42.722;23.268;2023-08-06T09:40:28;93847.72;;;23.35;67.89
42247;BME280;27913;42.722;23.268;2023-08-06T09:42:54;93560.25;;;21.64;67.22
42247;BME280;27913;42.722;23.268;2023-08-06T09:45:19;93825.97;;;23.22;66.14
42247;BME280;27913;42.722;23.268;2023-08-06T09:47:47;93843.56;;;23.43;65.97
42247;BME280;27913;42.722;23.268;2023-08-06T09:50:20;93785.84;;;23.17;64.63
42247;BME280;27913;42.722;23.268;2023-08-06T09:52:50;93751.84;;;22.98;64.60
42247;BME280;27913;42.722;23.268;2023-08-06T09:55:17;93751.31;;;23.44;63.68
42247;BME280;27913;42.722;23.268;2023-08-06T09:57:43;93820.16;;;24.13;60.58
42247;BME280;27913;42.722;23.268;2023-08-06T10:00:10;93803.94;;;24.33;59.89
42247;BME280;27913;42.722;23.268;2023-08-06T10:02:40;93850.66;;;24.92;59.35
42247;BME280;27913;42.722;23.268;2023-08-06T10:05:09;93844.41;;;25.28;57.47
42247;BME280;27913;42.722;23.268;2023-08-06T10:07:35;93797.13;;;25.04;56.79
42247;BME280;27913;42.722;23.268;2023-08-06T10:10:02;93867.22;;;25.72;56.93
42247;BME280;27913;42.722;23.268;2023-08-06T10:12:34;93654.19;;;24.39;55.84
42247;BME280;27913;42.722;23.268;2023-08-06T10:15:02;93861.41;;;25.87;56.25
42247;BME280;27913;42.722;23.268;2023-08-06T10:17:31;93836.91;;;25.57;57.15
42247;BME280;27913;42.722;23.268;2023-08-06T10:19:58;93715.28;;;24.33;59.46
42247;BME280;27913;42.722;23.268;2023-08-06T10:22:24;93844.03;;;25.21;60.16
42247;BME280;27913;42.722;23.268;2023-08-06T10:24:57;93833.69;;;24.82;59.67
42247;BME280;27913;42.722;23.268;2023-08-06T10:29:54;93685.00;;;23.58;60.94
42247;BME280;27913;42.722;23.268;2023-08-06T10:32:19;93752.22;;;24.13;60.31
42247;BME280;27913;42.722;23.268;2023-08-06T10:34:56;93863.56;;;25.04;60.95
42247;BME280;27913;42.722;23.268;2023-08-06T10:37:22;93865.50;;;25.12;59.51
42247;BME280;27913;42.722;23.268;2023-08-06T10:39:51;93863.97;;;25.20;59.11
42247;BME280;27913;42.722;23.268;2023-08-06T10:42:35;93894.56;;;25.33;57.51
42247;BME280;27913;42.722;23.268;2023-08-06T10:45:18;93887.44;;;25.28;57.26
42247;BME280;27913;42.722;23.268;2023-08-06T10:47:45;93858.00;;;25.00;58.41
42247;BME280;27913;42.722;23.268;2023-08-06T10:50:12;93776.56;;;24.54;58.07
42247;BME280;27913;42.722;23.268;2023-08-06T10:52:45;93856.72;;;24.97;57.64
42247;BME280;27913;42.722;23.268;2023-08-06T10:55:12;93896.19;;;25.11;57.93
42247;BME280;27913;42.722;23.268;2023-08-06T10:57:37;93888.06;;;25.02;58.08
42247;BME280;27913;42.722;23.268;2023-08-06T11:00:07;93840.75;;;24.55;59.31
42247;BME280;27913;42.722;23.268;2023-08-06T11:02:36;93910.63;;;24.78;59.58
42247;BME280;27913;42.722;23.268;2023-08-06T11:05:09;93929.47;;;23.99;71.86
42247;BME280;27913;42.722;23.268;2023-08-06T11:07:36;93898.78;;;23.29;75.63
42247;BME280;27913;42.722;23.268;2023-08-06T11:10:06;93872.16;;;22.86;77.94
42247;BME280;27913;42.722;23.268;2023-08-06T11:12:32;93703.88;;;21.63;77.78
42247;BME280;27913;42.722;23.268;2023-08-06T11:14:59;93915.34;;;22.98;80.39
42247;BME280;27913;42.722;23.268;2023-08-06T11:17:25;93909.84;;;23.09;79.99
42247;BME280;27913;42.722;23.268;2023-08-06T11:19:52;93870.75;;;22.88;78.06
42247;BME280;27913;42.722;23.268;2023-08-06T11:22:23;93782.25;;;22.41;78.44
42247;BME280;27913;42.722;23.268;2023-08-06T11:24:49;93919.78;;;23.42;76.29
42247;BME280;27913;42.722;23.268;2023-08-06T11:27:16;93874.94;;;23.28;73.95
42247;BME280;27913;42.722;23.268;2023-08-06T11:29:43;93899.13;;;23.42;72.10
42247;BME280;27913;42.722;23.268;2023-08-06T11:32:09;93917.53;;;23.63;70.81
42247;BME280;27913;42.722;23.268;2023-08-06T11:34:35;93675.38;;;22.11;68.83
42247;BME280;27913;42.722;23.268;2023-08-06T11:37:05;93903.41;;;23.71;69.83
42247;BME280;27913;42.722;23.268;2023-08-06T11:39:35;93906.91;;;23.86;69.38
42247;BME280;27913;42.722;23.268;2023-08-06T11:42:03;93883.94;;;23.94;68.09
42247;BME280;27913;42.722;23.268;2023-08-06T11:44:36;93840.16;;;23.93;68.28
42247;BME280;27913;42.722;23.268;2023-08-06T11:47:03;93718.19;;;23.62;66.17
42247;BME280;27913;42.722;23.268;2023-08-06T11:49:41;93879.75;;;24.90;66.38
42247;BME280;27913;42.722;23.268;2023-08-06T11:52:17;93879.81;;;24.99;66.18
42247;BME280;27913;42.722;23.268;2023-08-06T11:54:47;93883.03;;;25.09;65.31
42247;BME280;27913;42.722;23.268;2023-08-06T11:57:13;93872.03;;;25.20;64.35
42247;BME280;27913;42.722;23.268;2023-08-06T11:59:39;93876.91;;;25.50;62.27
42247;BME280;27913;42.722;23.268;2023-08-06T12:02:07;93873.94;;;25.92;60.84
42247;BME280;27913;42.722;23.268;2023-08-06T12:05:02;93823.53;;;25.75;57.25
42247;BME280;27913;42.722;23.268;2023-08-06T12:07:30;93875.16;;;25.77;53.73
42247;BME280;27913;42.722;23.268;2023-08-06T12:09:57;93804.31;;;25.18;54.92
42247;BME280;27913;42.722;23.268;2023-08-06T12:12:23;93869.91;;;25.40;55.12
42247;BME280;27913;42.722;23.268;2023-08-06T12:14:49;93860.06;;;25.26;56.17
42247;BME280;27913;42.722;23.268;2023-08-06T12:17:14;93677.22;;;23.71;56.52
42247;BME280;27913;42.722;23.268;2023-08-06T12:19:39;93811.38;;;24.36;57.84
42247;BME280;27913;42.722;23.268;2023-08-06T12:22:05;93868.38;;;24.70;56.24
42247;BME280;27913;42.722;23.268;2023-08-06T12:24:30;93606.09;;;23.22;57.17
42247;BME280;27913;42.722;23.268;2023-08-06T12:26:58;93858.97;;;25.04;57.42
42247;BME280;27913;42.722;23.268;2023-08-06T12:29:25;93865.25;;;25.23;56.52
42247;BME280;27913;42.722;23.268;2023-08-06T12:31:50;93832.34;;;25.26;54.80
42247;BME280;27913;42.722;23.268;2023-08-06T12:34:16;93865.84;;;25.51;53.29
42247;BME280;27913;42.722;23.268;2023-08-06T12:36:42;93880.63;;;25.31;53.81
42247;BME280;27913;42.722;23.268;2023-08-06T12:39:07;93867.81;;;25.28;54.52
42247;BME280;27913;42.722;23.268;2023-08-06T12:41:32;93822.56;;;24.98;53.67
42247;BME280;27913;42.722;23.268;2023-08-06T12:43:58;93870.19;;;25.29;53.48
42247;BME280;27913;42.722;23.268;2023-08-06T12:46:23;93865.28;;;25.00;55.25
42247;BME280;27913;42.722;23.268;2023-08-06T12:48:49;93871.84;;;25.16;55.42
42247;BME280;27913;42.722;23.268;2023-08-06T12:51:14;93868.56;;;25.19;55.08